Time;durP1;ratioP1;P1;durP2;ratioP2;P2;SDS_P1;SDS_P2;PMS_P1;PMS_P2;Temp;Humidity;BMP_temperature;BMP_pressure;BME280_temperature;BME280_humidity;BME280_pressure;Samples;Min_cycle;Max_cycle;Signal;HPM_P1;HPM_P2
2022/06/12 00:00:21;;;;;;;11.97;4.30;;;13.60;99.90;;;;;;5005918;28;20457;-52
2022/06/12 00:02:47;;;;;;;15.60;4.57;;;13.50;99.90;;;;;;4993789;28;20446;-52
2022/06/12 00:05:21;;;;;;;10.37;4.77;;;13.50;99.90;;;;;;5004490;28;20446;-52
2022/06/12 00:07:46;;;;;;;15.80;5.03;;;13.50;99.90;;;;;;4996460;28;20212;-52
2022/06/12 00:10:13;;;;;;;9.10;4.60;;;13.40;99.90;;;;;;5005752;28;20458;-52
2022/06/12 00:12:40;;;;;;;15.77;5.90;;;13.50;99.90;;;;;;5000457;28;20557;-53
2022/06/12 00:15:07;;;;;;;16.43;5.43;;;13.40;99.90;;;;;;5000476;28;20480;-52
2022/06/12 00:17:32;;;;;;;15.93;5.73;;;13.40;99.90;;;;;;4992414;28;20918;-52
2022/06/12 00:19:58;;;;;;;13.63;6.07;;;13.40;99.90;;;;;;5000420;28;20469;-52
2022/06/12 00:22:24;;;;;;;20.37;5.70;;;13.40;99.90;;;;;;5004742;28;20255;-52
2022/06/12 00:24:51;;;;;;;15.30;5.30;;;13.40;99.90;;;;;;5002775;28;20199;-52
2022/06/12 00:27:17;;;;;;;13.00;5.33;;;13.40;99.90;;;;;;4998334;28;20212;-52
2022/06/12 00:29:44;;;;;;;10.30;5.10;;;13.30;99.90;;;;;;5000860;28;20446;-53
2022/06/12 00:32:16;;;;;;;11.23;5.67;;;13.30;99.90;;;;;;4996162;28;20419;-52
2022/06/12 00:34:50;;;;;;;12.53;6.03;;;13.30;99.90;;;;;;5001987;28;20833;-52
2022/06/12 00:37:19;;;;;;;16.93;5.73;;;13.30;99.90;;;;;;4997239;28;20803;-52
2022/06/12 00:39:46;;;;;;;13.80;6.10;;;13.20;99.90;;;;;;4992243;28;21292;-53
2022/06/12 00:42:33;;;;;;;13.27;5.33;;;13.20;99.90;;;;;;5006628;28;20433;-54
2022/06/12 00:45:20;;;;;;;11.00;4.90;;;13.20;99.90;;;;;;4999272;28;20414;-52
2022/06/12 00:47:46;;;;;;;14.87;5.53;;;13.10;99.90;;;;;;4992064;28;20494;-52
2022/06/12 00:50:11;;;;;;;17.33;4.80;;;13.10;99.90;;;;;;4993015;28;20451;-52
2022/06/12 00:52:47;;;;;;;19.30;5.57;;;13.10;99.90;;;;;;5004371;28;20187;-51
2022/06/12 00:55:17;;;;;;;16.67;5.40;;;13.10;99.90;;;;;;4997675;28;20642;-52
2022/06/12 00:57:44;;;;;;;12.40;5.43;;;13.00;99.90;;;;;;5005645;28;20474;-52
2022/06/12 01:00:14;;;;;;;12.33;5.40;;;13.00;99.90;;;;;;4997863;28;20455;-52
2022/06/12 01:02:41;;;;;;;15.30;5.00;;;13.00;99.90;;;;;;5003882;28;20977;-52
2022/06/12 01:07:59;;;;;;;13.93;5.20;;;12.90;99.90;;;;;;4994365;28;20458;-52
2022/06/12 01:10:28;;;;;;;14.83;5.50;;;12.80;99.90;;;;;;4997212;28;20455;-52
2022/06/12 01:13:09;;;;;;;10.23;5.07;;;12.80;99.90;;;;;;5003225;28;20434;-52
2022/06/12 01:15:39;;;;;;;16.17;4.87;;;12.80;99.90;;;;;;4998603;28;20427;-52
2022/06/12 01:18:10;;;;;;;19.00;5.03;;;12.70;99.90;;;;;;5001445;28;20440;-53
2022/06/12 01:20:50;;;;;;;12.10;4.80;;;12.70;99.90;;;;;;4995195;28;20912;-52
2022/06/12 01:23:47;;;;;;;16.60;5.20;;;12.70;99.90;;;;;;5002080;28;20529;-52
2022/06/12 01:26:32;;;;;;;10.30;4.57;;;12.60;99.90;;;;;;4973975;28;21128;-52
2022/06/12 01:29:32;;;;;;;18.13;5.90;;;12.60;99.90;;;;;;4995036;28;20960;-53
2022/06/12 01:32:17;;;;;;;15.57;4.90;;;12.50;99.90;;;;;;4998596;28;20448;-52
2022/06/12 01:34:48;;;;;;;14.43;4.83;;;12.50;99.90;;;;;;5000802;28;20516;-52
2022/06/12 01:37:21;;;;;;;15.90;6.03;;;12.40;99.90;;;;;;4994750;28;20442;-53
2022/06/12 01:40:04;;;;;;;13.03;7.30;;;12.40;99.90;;;;;;4990792;28;20447;-53
2022/06/12 01:42:35;;;;;;;20.30;7.23;;;12.40;99.90;;;;;;5001330;28;20798;-52
2022/06/12 01:45:19;;;;;;;18.50;6.93;;;12.40;99.90;;;;;;5001189;28;20435;-52
2022/06/12 01:47:59;;;;;;;15.67;8.50;;;12.40;99.90;;;;;;4998874;28;20528;-53
2022/06/12 01:50:56;;;;;;;19.87;7.80;;;12.40;99.90;;;;;;4995908;28;20920;-53
2022/06/12 01:54:03;;;;;;;14.73;7.53;;;12.40;99.90;;;;;;4952519;28;20452;-53
2022/06/12 01:56:51;;;;;;;16.80;8.37;;;12.30;99.90;;;;;;4996200;28;20464;-52
2022/06/12 01:59:46;;;;;;;20.87;8.10;;;12.30;99.90;;;;;;5000467;28;20960;-53
2022/06/12 02:02:16;;;;;;;12.63;7.63;;;12.20;99.90;;;;;;4995225;28;20517;-53
2022/06/12 02:05:27;;;;;;;17.00;8.43;;;12.20;99.90;;;;;;4999785;28;20418;-52
2022/06/12 02:08:04;;;;;;;17.67;8.80;;;12.20;99.90;;;;;;4989979;28;20852;-52
2022/06/12 02:10:32;;;;;;;21.40;8.20;;;12.10;99.90;;;;;;4994259;28;20941;-52
2022/06/12 02:13:19;;;;;;;17.37;9.10;;;12.10;99.90;;;;;;4998771;28;20541;-52
2022/06/12 02:15:57;;;;;;;16.73;8.60;;;12.10;99.90;;;;;;4995626;28;20442;-53
2022/06/12 02:18:50;;;;;;;16.63;8.50;;;12.00;99.90;;;;;;4995913;28;20449;-53
2022/06/12 02:21:30;;;;;;;21.77;8.37;;;11.90;99.90;;;;;;4977347;28;20497;-53
2022/06/12 02:24:02;;;;;;;15.80;9.07;;;11.90;99.90;;;;;;4994401;28;21011;-52
2022/06/12 02:26:42;;;;;;;21.57;8.50;;;11.90;1.00;;;;;;4999721;28;20931;-52
2022/06/12 02:29:17;;;;;;;42.90;22.80;;;11.80;1.00;;;;;;4992434;28;20520;-53
2022/06/12 02:31:47;;;;;;;28.47;16.60;;;11.80;1.00;;;;;;4997936;28;20439;-53
2022/06/12 02:34:18;;;;;;;28.47;15.70;;;11.80;1.00;;;;;;5003467;28;20442;-52
2022/06/12 02:36:49;;;;;;;24.60;14.77;;;11.70;1.00;;;;;;4997683;28;20435;-52
2022/06/12 02:39:21;;;;;;;19.33;11.30;;;11.70;1.00;;;;;;4994562;28;20478;-53
2022/06/12 02:42:00;;;;;;;22.47;10.03;;;11.70;1.00;;;;;;4992712;28;20497;-52
2022/06/12 02:44:46;;;;;;;19.23;8.63;;;11.60;1.00;;;;;;4986417;28;20422;-52
2022/06/12 02:47:33;;;;;;;17.87;7.60;;;11.60;1.00;;;;;;4996470;28;20473;-53
2022/06/12 02:49:59;;;;;;;18.17;7.37;;;11.60;1.00;;;;;;4996589;28;20860;-53
2022/06/12 02:52:51;;;;;;;10.67;7.37;;;11.60;1.00;;;;;;4997038;28;20436;-53
2022/06/12 02:55:47;;;;;;;16.97;7.60;;;11.60;1.00;;;;;;5002581;28;20437;-53
2022/06/12 02:58:16;;;;;;;16.40;7.73;;;11.60;1.00;;;;;;4995438;28;20439;-52
2022/06/12 03:00:56;;;;;;;15.23;8.00;;;11.60;1.00;;;;;;4992072;28;20821;-52
2022/06/12 03:03:30;;;;;;;13.53;7.90;;;11.60;1.00;;;;;;5001428;28;20410;-52
2022/06/12 03:05:59;;;;;;;20.43;8.37;;;11.60;1.00;;;;;;4993149;28;20418;-53
2022/06/12 03:08:30;;;;;;;10.83;7.33;;;11.60;1.00;;;;;;4994921;28;20466;-53
2022/06/12 03:11:01;;;;;;;18.80;8.03;;;11.60;1.00;;;;;;4990805;28;20538;-52
2022/06/12 03:13:29;;;;;;;15.00;8.13;;;11.60;1.00;;;;;;5005415;28;20438;-54
2022/06/12 03:16:16;;;;;;;27.30;9.23;;;11.60;1.00;;;;;;4991572;28;20533;-52
2022/06/12 03:18:49;;;;;;;18.40;7.70;;;11.60;1.00;;;;;;4990920;28;20449;-53
2022/06/12 03:21:33;;;;;;;18.13;7.93;;;11.60;1.00;;;;;;4992500;28;20486;-52
2022/06/12 03:24:24;;;;;;;11.97;6.47;;;11.70;1.00;;;;;;4999772;28;20449;-53
2022/06/12 03:27:03;;;;;;;16.30;6.83;;;11.70;1.00;;;;;;4999941;28;20534;-53
2022/06/12 03:30:01;;;;;;;17.23;6.47;;;11.70;1.00;;;;;;4997601;28;20426;-53
2022/06/12 03:32:30;;;;;;;14.10;6.60;;;11.70;1.00;;;;;;4999715;28;20427;-53
2022/06/12 03:35:18;;;;;;;18.83;6.07;;;11.70;1.00;;;;;;4990940;28;20475;-52
2022/06/12 03:37:52;;;;;;;18.40;6.80;;;11.70;1.00;;;;;;5002391;28;20463;-52
2022/06/12 03:40:41;;;;;;;14.97;6.60;;;11.80;1.00;;;;;;5000860;28;20438;-53
2022/06/12 03:43:35;;;;;;;25.37;6.63;;;11.80;1.00;;;;;;4995185;28;20438;-54
2022/06/12 03:46:21;;;;;;;17.07;5.43;;;11.80;1.00;;;;;;4969689;28;20447;-53
2022/06/12 03:48:59;;;;;;;17.03;5.97;;;11.90;1.00;;;;;;4992514;28;21158;-52
2022/06/12 03:51:30;;;;;;;14.73;5.90;;;12.00;1.00;;;;;;4992863;28;20466;-53
2022/06/12 03:54:10;;;;;;;12.50;6.60;;;12.00;1.00;;;;;;5003826;28;20459;-52
2022/06/12 03:59:49;;;;;;;14.90;6.73;;;12.10;1.00;;;;;;4986693;28;20569;-53
2022/06/12 04:02:19;;;;;;;10.80;4.83;;;12.10;1.00;;;;;;5001644;28;20486;-52
2022/06/12 04:04:48;;;;;;;11.90;5.70;;;12.20;1.00;;;;;;5001017;28;20451;-53
2022/06/12 04:07:16;;;;;;;10.10;5.03;;;12.30;1.00;;;;;;4999089;28;20478;-52
2022/06/12 04:09:45;;;;;;;15.77;5.80;;;12.30;1.00;;;;;;5000516;28;20451;-52
2022/06/12 04:12:18;;;;;;;14.07;5.87;;;12.30;1.00;;;;;;4998240;28;20447;-52
2022/06/12 04:14:56;;;;;;;15.13;5.63;;;12.40;1.00;;;;;;5001324;28;20590;-52
2022/06/12 04:17:22;;;;;;;10.10;5.27;;;12.50;1.00;;;;;;4994722;28;20458;-53
2022/06/12 04:20:00;;;;;;;11.37;5.07;;;12.60;1.00;;;;;;4998076;28;20447;-53
2022/06/12 04:22:46;;;;;;;12.57;5.33;;;12.60;1.00;;;;;;4992779;28;20501;-52
2022/06/12 04:25:44;;;;;;;14.17;5.50;;;12.70;1.00;;;;;;4993826;28;21320;-52
2022/06/12 04:28:41;;;;;;;13.27;5.33;;;12.90;1.00;;;;;;4998753;28;20470;-53
2022/06/12 04:31:14;;;;;;;20.10;5.93;;;13.10;1.00;;;;;;4953179;28;20472;-53
2022/06/12 04:34:26;;;;;;;17.90;7.03;;;13.20;1.00;;;;;;5002992;28;20530;-52
2022/06/12 04:36:58;;;;;;;28.13;5.80;;;13.50;1.00;;;;;;4981105;28;20450;-52
2022/06/12 04:39:28;;;;;;;16.00;6.20;;;13.60;99.90;;;;;;4991339;28;20534;-53
2022/06/12 04:41:54;;;;;;;17.40;5.63;;;13.90;99.90;;;;;;4998146;28;20446;-52
2022/06/12 04:44:20;;;;;;;19.03;5.73;;;14.10;99.90;;;;;;5005888;28;20434;-52
2022/06/12 04:46:48;;;;;;;16.43;5.57;;;14.40;99.90;;;;;;4999461;28;20449;-52
2022/06/12 04:49:17;;;;;;;15.20;5.30;;;14.60;99.90;;;;;;4996281;28;20251;-52
2022/06/12 04:51:43;;;;;;;13.73;5.53;;;14.80;99.90;;;;;;4994694;28;20872;-52
2022/06/12 04:54:09;;;;;;;19.47;5.50;;;15.00;99.90;;;;;;4991478;28;20443;-52
2022/06/12 04:56:34;;;;;;;11.40;5.10;;;15.20;99.90;;;;;;4999160;28;20443;-52
2022/06/12 04:59:01;;;;;;;21.60;5.60;;;15.40;99.90;;;;;;5000305;28;20696;-52
2022/06/12 05:01:27;;;;;;;14.37;6.10;;;15.60;99.90;;;;;;5000013;28;20234;-51
2022/06/12 05:03:53;;;;;;;14.20;5.80;;;15.70;99.90;;;;;;4997724;28;20838;-52
2022/06/12 05:06:19;;;;;;;15.37;4.87;;;15.90;99.90;;;;;;5000039;28;20267;-52
2022/06/12 05:08:47;;;;;;;12.77;5.30;;;16.10;99.90;;;;;;5000461;28;20475;-52
2022/06/12 05:11:14;;;;;;;16.40;5.70;;;16.30;99.90;;;;;;4998413;28;20505;-51
2022/06/12 05:13:39;;;;;;;15.70;5.67;;;16.40;99.90;;;;;;5000916;28;20479;-51
2022/06/12 05:16:06;;;;;;;14.47;5.30;;;16.60;99.90;;;;;;5005890;28;20466;-51
2022/06/12 05:18:32;;;;;;;16.80;5.30;;;16.80;99.90;;;;;;5005499;28;20549;-51
2022/06/12 05:20:57;;;;;;;11.03;5.30;;;17.00;99.90;;;;;;4997467;28;20446;-51
2022/06/12 05:23:24;;;;;;;15.83;5.60;;;17.20;99.90;;;;;;4995711;28;20529;-52
2022/06/12 05:25:50;;;;;;;17.50;6.07;;;17.30;99.90;;;;;;4997990;28;20605;-52
2022/06/12 05:28:18;;;;;;;14.13;5.50;;;17.40;99.90;;;;;;5000276;28;21007;-52
2022/06/12 05:30:43;;;;;;;16.03;5.80;;;17.50;99.90;;;;;;4997976;28;20446;-52
2022/06/12 05:33:10;;;;;;;19.03;5.50;;;17.70;99.90;;;;;;5000368;28;20474;-52
2022/06/12 05:35:37;;;;;;;15.83;5.90;;;17.90;99.90;;;;;;5002087;28;20188;-51
2022/06/12 05:38:04;;;;;;;13.30;5.50;;;18.00;99.90;;;;;;4993479;28;20909;-51
2022/06/12 05:40:32;;;;;;;12.90;5.27;;;18.30;99.90;;;;;;4995628;28;21000;-51
2022/06/12 05:42:58;;;;;;;15.27;5.30;;;18.40;99.90;;;;;;4993950;28;20537;-51
2022/06/12 05:45:25;;;;;;;12.23;4.80;;;18.60;99.90;;;;;;5003195;28;20469;-51
2022/06/12 05:47:58;;;;;;;17.70;4.50;;;18.60;99.90;;;;;;4996261;28;20207;-51
2022/06/12 05:50:27;;;;;;;13.63;4.63;;;18.80;99.90;;;;;;5004797;28;20426;-51
2022/06/12 05:52:53;;;;;;;16.53;4.17;;;18.80;99.90;;;;;;4998177;28;20468;-51
2022/06/12 05:55:18;;;;;;;11.97;3.40;;;18.80;99.90;;;;;;5000308;28;20526;-51
2022/06/12 05:57:44;;;;;;;12.53;3.90;;;18.90;99.90;;;;;;4986915;28;20530;-52
2022/06/12 06:00:19;;;;;;;14.93;4.20;;;19.00;99.90;;;;;;4999492;28;20227;-51
2022/06/12 06:02:44;;;;;;;13.70;2.80;;;19.10;99.90;;;;;;4994174;28;20188;-51
2022/06/12 06:05:11;;;;;;;16.83;3.47;;;19.20;99.90;;;;;;5000637;28;20804;-51
2022/06/12 06:07:38;;;;;;;19.73;4.40;;;19.40;99.90;;;;;;4996123;28;20211;-51
2022/06/12 06:10:06;;;;;;;12.17;3.73;;;19.40;99.90;;;;;;4998381;28;20968;-50
2022/06/12 06:12:33;;;;;;;12.07;3.33;;;19.50;99.90;;;;;;4992208;28;20452;-51
2022/06/12 06:14:58;;;;;;;11.67;3.23;;;19.70;99.90;;;;;;5000691;28;20438;-51
2022/06/12 06:17:24;;;;;;;12.13;3.10;;;19.80;99.90;;;;;;4991565;28;20453;-51
2022/06/12 06:19:50;;;;;;;14.53;3.27;;;19.90;99.90;;;;;;4992627;28;20239;-51
2022/06/12 06:22:17;;;;;;;11.93;3.67;;;20.10;99.90;;;;;;4993183;28;20232;-51
2022/06/12 06:24:43;;;;;;;11.17;2.80;;;20.40;99.90;;;;;;4999883;28;20250;-51
2022/06/12 06:27:14;;;;;;;15.53;3.50;;;20.40;99.90;;;;;;4994745;28;20442;-51
2022/06/12 06:29:40;;;;;;;12.10;3.67;;;20.40;99.90;;;;;;4995966;28;20966;-50
2022/06/12 06:32:08;;;;;;;13.47;3.43;;;20.50;99.90;;;;;;4989041;28;20451;-51
2022/06/12 06:34:35;;;;;;;9.37;2.90;;;20.50;99.90;;;;;;4996606;28;20450;-51
2022/06/12 06:37:00;;;;;;;17.37;3.60;;;20.80;99.90;;;;;;4994972;28;20486;-51
2022/06/12 06:39:26;;;;;;;18.13;3.57;;;20.80;99.90;;;;;;5002481;28;20506;-51
2022/06/12 06:41:52;;;;;;;18.00;2.80;;;21.00;99.90;;;;;;4989897;28;20203;-51
2022/06/12 06:47:02;;;;;;;15.00;3.20;;;21.30;99.90;;;;;;4991183;28;20275;-51
2022/06/12 06:49:28;;;;;;;16.63;3.10;;;21.40;99.90;;;;;;4988037;28;20976;-51
2022/06/12 06:51:53;;;;;;;12.90;2.90;;;21.50;99.90;;;;;;4995085;28;20531;-50
2022/06/12 06:54:19;;;;;;;18.13;3.17;;;21.40;99.90;;;;;;4995965;28;20215;-51
2022/06/12 06:56:45;;;;;;;11.73;2.97;;;21.50;99.90;;;;;;4995892;28;20657;-51
2022/06/12 06:59:11;;;;;;;8.90;3.07;;;21.40;99.90;;;;;;4999451;28;20445;-51
2022/06/12 07:01:37;;;;;;;9.47;2.93;;;21.20;99.90;;;;;;4995095;28;20184;-53
2022/06/12 07:04:03;;;;;;;8.67;2.60;;;21.30;99.90;;;;;;4994578;28;20796;-50
2022/06/12 07:06:29;;;;;;;13.93;3.17;;;21.40;99.90;;;;;;4994861;28;20198;-51
2022/06/12 07:08:55;;;;;;;12.10;2.47;;;21.40;99.90;;;;;;5001586;28;20212;-50
2022/06/12 07:11:23;;;;;;;13.80;3.20;;;21.50;99.90;;;;;;4989150;28;20448;-51
2022/06/12 07:13:49;;;;;;;10.97;2.63;;;21.80;99.90;;;;;;4995236;28;20779;-50
2022/06/12 07:16:15;;;;;;;14.97;2.60;;;22.20;99.90;;;;;;4989571;28;20450;-50
